Terminal Aerodrome Forecast
Issued by NWS

Home | Current Version | Previous Version | Text Only | Print | Product List | Glossary On
Versions: 1 2 3 4 5 6 7 8 9 10 11 12 13 14 15 16 17 18 19 20 21 22 23 24
000
FTUS43 KDVN 220917 AAB
TAFCID
TAF AMD
KCID 220917Z 2209/2306 30010KT P6SM SCT007 OVC150
      TEMPO 2209/2212 SCT005 BKN012
     FM221200 31012KT P6SM BKN040
     FM221700 33016G23KT P6SM SCT040
     FM230000 31007KT P6SM SKC=

USA.gov is the U.S. government's official web portal to all federal, state and local government web resources and services.